createdAt,value
2017-06-18T00:00:52.015Z,54.6
2017-06-18T00:02:02.410Z,54.69
2017-06-18T00:03:12.757Z,54.69
2017-06-18T00:04:22.786Z,54.6
2017-06-18T00:05:33.139Z,54.6
2017-06-18T00:06:43.496Z,54.79
2017-06-18T00:07:53.592Z,54.6
2017-06-18T00:09:03.940Z,54.69
2017-06-18T00:10:14.286Z,54.79
2017-06-18T00:11:24.639Z,54.69
2017-06-18T00:12:34.989Z,54.6
2017-06-18T00:13:45.314Z,54.6
2017-06-18T00:14:55.694Z,54.69
2017-06-18T00:16:05.465Z,54.69
2017-06-18T00:17:15.838Z,54.79
2017-06-18T00:18:26.184Z,54.69
2017-06-18T00:19:36.218Z,54.5
2017-06-18T00:20:46.571Z,54.69
2017-06-18T00:21:56.615Z,54.89
2017-06-18T00:23:06.956Z,54.89
2017-06-18T00:24:17.303Z,54.6
2017-06-18T00:25:27.336Z,54.79
2017-06-18T00:26:37.680Z,54.79
2017-06-18T00:27:48.022Z,54.79
2017-06-18T00:28:57.738Z,54.5
2017-06-18T00:30:08.091Z,54.99
2017-06-18T00:31:18.490Z,55.08
2017-06-18T00:32:28.825Z,55.18
2017-06-18T00:33:39.161Z,55.08
2017-06-18T00:34:49.495Z,55.08
2017-06-18T00:35:59.850Z,54.99
2017-06-18T00:37:10.202Z,55.08
2017-06-18T00:38:20.591Z,55.08
2017-06-18T00:39:30.629Z,55.08
2017-06-18T00:40:40.971Z,54.89
2017-06-18T00:41:50.996Z,54.89
2017-06-18T00:43:01.391Z,55.27
2017-06-18T00:44:10.807Z,55.18
2017-06-18T00:45:21.159Z,55.08
2017-06-18T00:46:31.488Z,55.08
2017-06-18T00:47:41.838Z,55.08
2017-06-18T00:48:52.230Z,55.18
2017-06-18T00:50:02.587Z,55.27
2017-06-18T00:51:12.610Z,55.34
2017-06-18T00:52:22.984Z,55.34
2017-06-18T00:53:32.692Z,55.44
2017-06-18T00:54:43.038Z,55.73
2017-06-18T00:55:53.380Z,55.44
2017-06-18T00:57:03.406Z,55.24
2017-06-18T00:58:13.443Z,55.34
2017-06-18T00:59:23.823Z,55.73
2017-06-18T01:00:34.314Z,55.53
2017-06-18T01:01:44.669Z,55.24
2017-06-18T01:02:54.707Z,55.44
2017-06-18T01:04:05.043Z,55.34
2017-06-18T01:05:15.070Z,55.34
2017-06-18T01:06:25.463Z,55.44
2017-06-18T01:07:35.829Z,55.05
2017-06-18T01:08:46.180Z,55.15
2017-06-18T01:09:56.528Z,55.12
2017-06-18T01:11:07.118Z,55.24
2017-06-18T01:12:17.462Z,55.22
2017-06-18T01:13:27.815Z,55.12
2017-06-18T01:14:38.184Z,55.12
2017-06-18T01:15:48.532Z,55.05
2017-06-18T01:16:59.129Z,55.15
2017-06-18T01:18:09.498Z,55.02
2017-06-18T01:19:19.837Z,55.12
2017-06-18T01:20:30.182Z,55.12
2017-06-18T01:21:40.522Z,55.02
2017-06-18T01:22:50.870Z,55.41
2017-06-18T01:24:00.907Z,55.12
2017-06-18T01:25:11.269Z,55.12
2017-06-18T01:26:21.297Z,55.22
2017-06-18T01:27:31.629Z,55.12
2017-06-18T01:28:41.351Z,54.93
2017-06-18T01:29:51.765Z,55.02
2017-06-18T01:31:02.106Z,55.02
2017-06-18T01:32:12.462Z,55.02
2017-06-18T01:33:22.812Z,55.41
2017-06-18T01:34:33.199Z,54.93
2017-06-18T01:35:43.611Z,54.93
2017-06-18T01:36:53.942Z,55.02
2017-06-18T01:38:04.527Z,55.22
2017-06-18T01:39:14.877Z,55.12
2017-06-18T01:40:24.902Z,55.02
2017-06-18T01:41:35.304Z,55.02
2017-06-18T01:42:45.030Z,55.12
2017-06-18T01:43:55.368Z,55.22
2017-06-18T01:45:05.868Z,55.02
2017-06-18T01:46:16.246Z,55.12
2017-06-18T01:47:26.597Z,55.12
2017-06-18T01:48:36.324Z,55.12
2017-06-18T01:49:46.037Z,55.02
2017-06-18T01:50:56.074Z,55.41
2017-06-18T01:52:06.426Z,55.22
2017-06-18T01:53:16.813Z,55.02
2017-06-18T01:54:26.836Z,55.02
2017-06-18T01:55:37.191Z,55.22
2017-06-18T01:56:47.218Z,55.02
2017-06-18T01:57:57.242Z,54.93
2017-06-18T01:59:07.624Z,55.02
2017-06-18T02:00:17.968Z,55.02
2017-06-18T02:01:27.995Z,55.02
2017-06-18T02:02:38.039Z,55.02
2017-06-18T02:03:48.384Z,55.02
2017-06-18T02:04:58.775Z,55.32
2017-06-18T02:06:09.121Z,55.02
2017-06-18T02:07:19.473Z,54.93
2017-06-18T02:08:29.513Z,55.02
2017-06-18T02:09:39.872Z,55.02
2017-06-18T02:10:50.268Z,55.32
2017-06-18T02:12:00.601Z,55.02
2017-06-18T02:13:10.641Z,55.22
2017-06-18T02:14:20.985Z,55.12
2017-06-18T02:15:31.321Z,55.12
2017-06-18T02:16:41.668Z,54.93
2017-06-18T02:17:52.207Z,55.12
2017-06-18T02:19:02.588Z,55.22
2017-06-18T02:20:12.949Z,55.22
2017-06-18T02:21:23.295Z,55.22
2017-06-18T02:22:33.393Z,55.41
2017-06-18T02:23:43.735Z,55.41
2017-06-18T02:24:54.072Z,55.41
2017-06-18T02:26:04.103Z,55.41
2017-06-18T02:27:14.432Z,55.41
2017-06-18T02:28:24.830Z,55.41
2017-06-18T02:29:35.180Z,55.41
2017-06-18T02:30:45.209Z,55.41
2017-06-18T02:31:55.554Z,55.12
2017-06-18T02:33:05.892Z,55.38
2017-06-18T02:34:16.231Z,55.41
2017-06-18T02:35:26.571Z,55.12
2017-06-18T02:36:36.913Z,55.02
2017-06-18T02:37:46.937Z,55.12
2017-06-18T02:38:56.997Z,55.12
2017-06-18T02:40:07.031Z,55.22
2017-06-18T02:41:17.373Z,55.22
2017-06-18T02:42:27.730Z,55.41
2017-06-18T02:43:38.088Z,55.22
2017-06-18T02:44:48.426Z,55.12
2017-06-18T02:45:58.828Z,55.41
2017-06-18T02:47:08.870Z,55.12
2017-06-18T02:48:19.216Z,55.02
2017-06-18T02:49:29.559Z,55.12
2017-06-18T02:50:39.894Z,55.02
2017-06-18T02:51:50.241Z,54.93
2017-06-18T02:53:00.582Z,55.12
2017-06-18T02:54:10.633Z,55.22
2017-06-18T02:55:20.991Z,55.12
2017-06-18T02:56:31.433Z,55.12
2017-06-18T02:57:41.186Z,55.12
2017-06-18T02:58:50.910Z,55.12
2017-06-18T03:00:01.282Z,55.41
2017-06-18T03:01:11.324Z,55.41
2017-06-18T03:33:02.776Z,52.26
2017-06-18T03:34:13.107Z,52.23
2017-06-18T03:35:23.122Z,53.09
2017-06-18T03:36:33.153Z,53.77
2017-06-18T03:37:43.491Z,53.89
2017-06-18T03:38:53.886Z,54.56
2017-06-18T03:40:04.223Z,54.66
2017-06-18T03:41:13.945Z,54.94
2017-06-18T03:42:23.981Z,55.13
2017-06-18T03:43:34.333Z,55.45
2017-06-18T03:44:44.410Z,55.35
2017-06-18T03:45:54.743Z,55.16
2017-06-18T03:47:05.091Z,55.38
2017-06-18T03:48:15.492Z,55.47
2017-06-18T03:49:25.517Z,55.38
2017-06-18T03:50:35.896Z,55.51
2017-06-18T03:51:46.491Z,55.12
2017-06-18T03:52:55.927Z,55.22
2017-06-18T03:54:06.275Z,55.12
2017-06-18T03:55:16.311Z,54.86
2017-06-18T03:56:26.849Z,55.05
2017-06-18T03:57:36.886Z,54.99
2017-06-18T03:58:46.915Z,54.79
2017-06-18T03:59:56.948Z,54.99
2017-06-18T04:01:07.309Z,54.89
2017-06-18T04:02:17.383Z,54.89
2017-06-18T04:03:27.730Z,54.82
2017-06-18T04:04:37.766Z,54.72
2017-06-18T04:05:47.813Z,55.01
2017-06-18T04:06:58.167Z,54.53
2017-06-18T04:08:08.497Z,54.27
2017-06-18T04:09:18.829Z,54.27
2017-06-18T04:10:28.856Z,54.46
2017-06-18T04:11:39.304Z,54.36
2017-06-18T04:12:49.654Z,53.98
2017-06-18T04:13:59.990Z,54
2017-06-18T04:15:09.726Z,54.2
2017-06-18T04:16:20.083Z,53.81
2017-06-18T04:17:30.115Z,54.03
2017-06-18T04:18:40.453Z,54.03
2017-06-18T04:19:50.693Z,53.94
2017-06-18T04:21:01.020Z,54.42
2017-06-18T04:22:11.367Z,54.42
2017-06-18T04:23:21.711Z,54.32
2017-06-18T04:24:32.050Z,54.42
2017-06-18T04:25:42.133Z,54.42
2017-06-18T04:26:52.473Z,54.42
2017-06-18T04:28:02.506Z,54.42
2017-06-18T04:29:12.463Z,54.32
2017-06-18T04:30:22.484Z,54.32
2017-06-18T04:31:32.851Z,54.35
2017-06-18T04:32:42.895Z,54.06
2017-06-18T04:33:53.246Z,54.16
2017-06-18T04:35:03.600Z,54.25
2017-06-18T04:36:13.939Z,54.35
2017-06-18T04:37:24.034Z,54.44
2017-06-18T04:38:34.384Z,54.54
2017-06-18T04:39:44.927Z,54.42
2017-06-18T04:40:55.270Z,54.16
2017-06-18T04:42:05.604Z,54.8
2017-06-18T04:43:16.179Z,55.12
2017-06-18T04:44:26.525Z,54.8
2017-06-18T04:45:37.083Z,55.09
2017-06-18T04:46:47.116Z,55.29
2017-06-18T04:47:57.469Z,54.9
2017-06-18T04:49:07.512Z,55.09
2017-06-18T04:50:17.863Z,54.71
2017-06-18T04:51:28.215Z,54.03
2017-06-18T04:52:38.564Z,52.33
2017-06-18T04:53:48.910Z,51.92
2017-06-18T04:54:59.005Z,52.43
2017-06-18T04:56:09.359Z,49.75
2017-06-18T04:57:19.735Z,48.27
2017-06-18T04:58:29.757Z,47.11
2017-06-18T04:59:39.509Z,46.78
2017-06-18T05:00:49.895Z,46.86
2017-06-18T05:02:00.172Z,46.88
2017-06-18T05:03:10.510Z,47.22
2017-06-18T05:04:20.529Z,46.75
2017-06-18T05:05:30.869Z,47.17
2017-06-18T05:06:41.219Z,46.68
2017-06-18T05:07:51.567Z,46.8
2017-06-18T05:09:01.962Z,46.89
2017-06-18T05:10:12.542Z,46.72
2017-06-18T05:11:22.894Z,47.11
2017-06-18T05:12:33.238Z,47.11
2017-06-18T05:13:43.579Z,47.63
2017-06-18T05:14:53.987Z,47.53
2017-06-18T05:16:03.739Z,47.33
2017-06-18T05:17:14.110Z,47.65
2017-06-18T05:18:24.148Z,47.75
2017-06-18T05:19:34.198Z,48.14
2017-06-18T05:20:44.285Z,48.43
2017-06-18T05:21:54.627Z,48.43
2017-06-18T05:23:04.985Z,48.14
2017-06-18T05:24:15.340Z,48.14
2017-06-18T05:25:25.693Z,48.14
2017-06-18T05:26:36.106Z,48.33
2017-06-18T05:27:46.481Z,48.24
2017-06-18T05:28:56.532Z,48.53
2017-06-18T05:30:06.898Z,48.04
2017-06-18T05:31:16.642Z,48.36
2017-06-18T05:32:27.015Z,48.33
2017-06-18T05:33:37.360Z,48.07
2017-06-18T05:34:47.710Z,48.07
2017-06-18T05:35:57.743Z,48.16
2017-06-18T05:37:08.116Z,48.16
2017-06-18T05:38:18.203Z,48.16
2017-06-18T05:39:27.925Z,48.33
2017-06-18T05:40:37.965Z,48.07
2017-06-18T05:41:47.988Z,48.07
2017-06-18T05:42:58.357Z,48.24
2017-06-18T05:44:08.707Z,48.16
2017-06-18T05:45:19.062Z,48.46
2017-06-18T05:46:29.017Z,48.14
2017-06-18T05:47:39.378Z,48.07
2017-06-18T05:48:49.717Z,48.04
2017-06-18T05:50:00.109Z,48.04
2017-06-18T05:51:10.458Z,48.14
2017-06-18T05:52:20.801Z,48.14
2017-06-18T05:53:31.205Z,48.43
2017-06-18T05:54:41.236Z,48.53
2017-06-18T05:55:51.312Z,48.41
2017-06-18T05:57:01.689Z,48.8
2017-06-18T05:58:11.728Z,48.7
2017-06-18T05:59:21.779Z,48.41
2017-06-18T06:00:31.811Z,48.31
2017-06-18T06:01:41.570Z,48.41
2017-06-18T06:02:51.923Z,48.31
2017-06-18T06:04:02.306Z,48.41
2017-06-18T06:05:12.351Z,48.31
2017-06-18T06:06:22.401Z,48.41
2017-06-18T06:07:32.522Z,48.31
2017-06-18T06:08:42.868Z,48.5
2017-06-18T06:09:52.908Z,48.8
2017-06-18T06:11:03.259Z,49.16
2017-06-18T06:12:13.802Z,49.26
2017-06-18T06:13:23.898Z,49.43
2017-06-18T06:14:33.624Z,49.24
2017-06-18T06:15:43.350Z,49.04
2017-06-18T06:16:53.383Z,49.63
2017-06-18T06:18:03.742Z,49.68
2017-06-18T06:19:14.145Z,50.82
2017-06-18T06:20:24.512Z,51.65
2017-06-18T06:21:35.107Z,52.28
2017-06-18T06:22:45.717Z,52.65
2017-06-18T06:23:56.065Z,53.08
2017-06-18T06:25:06.489Z,52.96
2017-06-18T06:26:16.859Z,52.86
2017-06-18T06:27:26.887Z,52.94
2017-06-18T06:28:36.929Z,53
2017-06-18T06:29:47.291Z,52.78
2017-06-18T06:30:57.744Z,53.08
2017-06-18T06:32:07.805Z,52.86
2017-06-18T06:33:18.151Z,53.22
2017-06-18T06:34:28.186Z,53.31
2017-06-18T06:35:38.239Z,53.58
2017-06-18T06:36:48.606Z,53.75
2017-06-18T06:37:58.962Z,53.85
2017-06-18T06:39:09.350Z,53.75
2017-06-18T06:40:19.696Z,53.53
2017-06-18T06:41:30.038Z,53.04
2017-06-18T06:42:40.443Z,52.66
2017-06-18T06:43:50.803Z,52.95
2017-06-18T06:45:01.140Z,51.98
2017-06-18T06:46:11.166Z,52.66
2017-06-18T06:47:21.538Z,52.75
2017-06-18T06:48:31.619Z,52.08
2017-06-18T06:49:41.989Z,52.1
2017-06-18T06:50:52.053Z,52.1
2017-06-18T06:52:02.404Z,52
2017-06-18T06:53:12.751Z,51.84
2017-06-18T06:54:23.167Z,51.54
2017-06-18T06:55:33.519Z,52.22
2017-06-18T06:56:43.551Z,51.57
2017-06-18T06:57:53.294Z,51.47
2017-06-18T06:59:03.646Z,51.76
2017-06-18T07:00:13.727Z,51.5
2017-06-18T07:01:24.078Z,50.82
2017-06-18T07:02:34.461Z,50.84
2017-06-18T07:03:44.822Z,51.04
2017-06-18T07:04:55.167Z,51.06
2017-06-18T07:06:05.573Z,50.68
2017-06-18T07:07:15.950Z,50.51
2017-06-18T07:08:26.317Z,50.53
2017-06-18T07:09:36.685Z,50.04
2017-06-18T07:10:47.028Z,50.16
2017-06-18T07:11:57.422Z,50.36
2017-06-18T07:13:07.772Z,50.46
2017-06-18T07:14:17.800Z,50.85
2017-06-18T07:15:28.180Z,50.65
2017-06-18T07:16:38.262Z,51.11
2017-06-18T07:17:48.616Z,51.11
2017-06-18T07:18:58.983Z,51.01
2017-06-18T07:20:08.713Z,50.92
2017-06-18T07:21:18.745Z,50.73
2017-06-18T07:22:28.793Z,51.11
2017-06-18T07:23:39.241Z,50.53
2017-06-18T07:24:48.996Z,50.82
2017-06-18T07:25:59.360Z,51.14
2017-06-18T07:27:09.402Z,50.85
2017-06-18T07:28:19.752Z,50.65
2017-06-18T07:29:30.150Z,50.26
2017-06-18T07:30:39.882Z,50.19
2017-06-18T07:31:50.240Z,50.68
2017-06-18T07:32:59.984Z,50.68
2017-06-18T07:34:10.349Z,50.68
2017-06-18T07:35:20.760Z,51.04
2017-06-18T07:36:30.790Z,51.92
2017-06-18T07:37:41.146Z,52.47
2017-06-18T07:38:51.515Z,51.99
2017-06-18T07:40:01.563Z,52.25
2017-06-18T07:41:11.644Z,52.72
2017-06-18T07:42:22.014Z,52.59
2017-06-18T07:43:32.058Z,53.17
2017-06-18T07:44:42.107Z,53.15
2017-06-18T07:45:52.457Z,52.86
2017-06-18T07:47:02.796Z,53.15
2017-06-18T07:48:12.829Z,53.15
2017-06-18T07:49:23.202Z,53.12
2017-06-18T07:50:33.550Z,53.05
2017-06-18T07:51:43.609Z,53.12
2017-06-18T07:52:53.985Z,53.12
2017-06-18T07:54:04.027Z,53.12
2017-06-18T07:55:14.373Z,52.93
2017-06-18T07:56:24.749Z,53.44
2017-06-18T07:57:34.812Z,53.8
2017-06-18T07:58:45.378Z,52.93
2017-06-18T07:59:55.737Z,52.54
2017-06-18T08:01:06.076Z,52.54
2017-06-18T08:02:16.436Z,52.83
2017-06-18T08:03:26.793Z,52.83
2017-06-18T08:04:37.183Z,52.93
2017-06-18T08:05:47.727Z,52.95
2017-06-18T08:06:58.110Z,52.66
2017-06-18T08:08:08.468Z,52.5
2017-06-18T08:09:18.827Z,52.69
2017-06-18T08:10:29.231Z,52.98
2017-06-18T08:11:39.597Z,52.88
2017-06-18T08:12:49.968Z,52.08
2017-06-18T08:14:00.598Z,51.91
2017-06-18T08:15:10.952Z,51.97
2017-06-18T08:16:21.347Z,52.13
2017-06-18T08:17:31.729Z,52.03
2017-06-18T08:18:42.110Z,52.13
2017-06-18T08:19:52.465Z,52.15
2017-06-18T08:21:02.817Z,52.06
2017-06-18T08:22:13.116Z,52.35
2017-06-18T08:23:23.470Z,51.99
2017-06-18T08:24:34.093Z,52.64
2017-06-18T08:25:44.509Z,52.35
2017-06-18T08:26:54.856Z,52.28
2017-06-18T08:28:04.938Z,52.28
2017-06-18T08:29:14.666Z,51.89
2017-06-18T08:30:24.418Z,51.82
2017-06-18T08:31:34.481Z,51.84
2017-06-18T08:32:44.840Z,52.31
2017-06-18T08:33:55.277Z,52.21
2017-06-18T08:35:05.630Z,52.19
2017-06-18T08:36:16.028Z,52.19
2017-06-18T08:37:26.400Z,52.5
2017-06-18T08:38:36.766Z,52.37
2017-06-18T08:39:47.112Z,52.11
2017-06-18T08:40:57.472Z,52.19
2017-06-18T08:42:07.529Z,52.76
2017-06-18T08:43:17.896Z,52.86
2017-06-18T08:44:27.937Z,52.37
2017-06-18T08:45:38.294Z,52.09
2017-06-18T08:46:48.732Z,51.62
2017-06-18T08:47:59.093Z,51.55
2017-06-18T08:49:09.464Z,52.04
2017-06-18T08:50:19.850Z,51.65
2017-06-18T08:51:29.893Z,52.43
2017-06-18T08:52:40.011Z,53.28
2017-06-18T08:53:50.385Z,53.16
2017-06-18T08:55:00.763Z,52.67
2017-06-18T08:56:11.201Z,52.67
2017-06-18T08:57:21.578Z,53.03
2017-06-18T08:58:31.927Z,52.96
2017-06-18T08:59:41.957Z,53.71
2017-06-18T09:00:52.013Z,53.75
2017-06-18T09:02:02.363Z,52.91
2017-06-18T09:03:12.941Z,51.97
2017-06-18T09:04:23.019Z,51.72
2017-06-18T09:05:33.369Z,51.07
2017-06-18T09:06:43.726Z,51.19
2017-06-18T09:07:54.138Z,51.87
2017-06-18T09:09:04.500Z,51.65
2017-06-18T09:10:14.949Z,52.33
2017-06-18T09:11:25.314Z,52.4
2017-06-18T09:12:35.349Z,51.92
2017-06-18T09:13:45.698Z,52.23
2017-06-18T09:14:56.275Z,51.67
2017-06-18T09:16:06.646Z,51.58
2017-06-18T09:17:16.989Z,51.67
2017-06-18T09:18:27.345Z,51.58
2017-06-18T09:19:37.707Z,52.45
2017-06-18T09:20:48.067Z,53.3
2017-06-18T09:21:58.184Z,52.92
2017-06-18T09:23:08.550Z,53.2
2017-06-18T09:24:18.578Z,52.82
2017-06-18T09:25:28.949Z,52.14
2017-06-18T09:26:38.992Z,52.23
2017-06-18T09:27:48.809Z,52.43
2017-06-18T09:28:59.179Z,52.16
2017-06-18T09:30:09.217Z,51.41
2017-06-18T09:31:18.931Z,51.7
2017-06-18T09:32:29.395Z,51.02
2017-06-18T09:33:39.474Z,51.14
2017-06-18T09:34:49.525Z,51.07
2017-06-18T09:35:59.876Z,51.65
2017-06-18T09:37:10.258Z,51.73
2017-06-18T09:38:20.332Z,51.43
2017-06-18T09:39:30.468Z,51.07
2017-06-18T09:40:40.831Z,50.8
2017-06-18T09:41:51.195Z,50.24
2017-06-18T09:43:01.270Z,50.39
2017-06-18T09:44:11.635Z,50.88
2017-06-18T09:45:21.416Z,52.19
2017-06-18T09:46:31.807Z,52
2017-06-18T09:47:42.155Z,52
2017-06-18T09:48:52.192Z,51.39
2017-06-18T09:50:02.236Z,51.41
2017-06-18T09:51:12.348Z,51.02
2017-06-18T09:52:22.754Z,51.7
2017-06-18T09:53:33.132Z,52.19
2017-06-18T09:54:43.544Z,51.8
2017-06-18T09:55:53.595Z,52.07
2017-06-18T09:57:03.697Z,52.36
2017-06-18T09:58:13.430Z,52.63
2017-06-18T09:59:23.798Z,52.44
2017-06-18T10:00:34.170Z,52.44
2017-06-18T10:01:44.772Z,52.44
2017-06-18T10:02:55.185Z,52.83
2017-06-18T10:04:05.747Z,53.38
2017-06-18T10:05:16.125Z,52.87
2017-06-18T10:06:26.501Z,52.97
2017-06-18T10:07:36.545Z,52.4
2017-06-18T10:08:46.967Z,53.31
2017-06-18T10:09:57.314Z,52.89
2017-06-18T10:11:07.073Z,54.03
2017-06-18T10:12:17.135Z,52.75
2017-06-18T10:13:27.933Z,52.38
2017-06-18T10:14:37.750Z,52.6
2017-06-18T10:15:47.801Z,52.6
2017-06-18T10:16:58.169Z,52.4
2017-06-18T10:18:08.787Z,52.02
2017-06-18T10:19:19.196Z,52.04
2017-06-18T10:20:29.589Z,52.34
2017-06-18T10:21:39.684Z,51.75
2017-06-18T10:22:50.050Z,52.36
2017-06-18T10:24:00.117Z,52.66
2017-06-18T10:25:10.534Z,51.87
2017-06-18T10:26:20.999Z,52.17
2017-06-18T10:27:31.441Z,52.07
2017-06-18T10:28:41.830Z,52.17
2017-06-18T10:29:52.255Z,52.44
2017-06-18T10:31:02.381Z,52.53
2017-06-18T10:32:12.862Z,53.41
2017-06-18T10:33:23.291Z,52.8
2017-06-18T10:34:33.434Z,52.31
2017-06-18T10:35:43.266Z,52.24
2017-06-18T10:36:53.688Z,51.87
2017-06-18T10:38:04.318Z,51.31
2017-06-18T10:39:14.402Z,51.07
2017-06-18T10:40:24.805Z,50.81
2017-06-18T10:41:35.185Z,50.83
2017-06-18T10:42:45.568Z,51.98
2017-06-18T10:43:56.178Z,51.95
2017-06-18T10:45:06.272Z,52.31
2017-06-18T10:46:16.358Z,51.92
2017-06-18T10:47:26.754Z,52.25
2017-06-18T10:48:37.170Z,51.39
2017-06-18T10:49:47.657Z,51.03
2017-06-18T10:50:58.070Z,51.03
2017-06-18T10:52:08.526Z,51.51
2017-06-18T10:53:18.956Z,51.88
2017-06-18T10:54:29.386Z,52.56
2017-06-18T10:55:39.886Z,52.44
2017-06-18T10:56:50.023Z,52.54
2017-06-18T10:58:00.478Z,52.31
2017-06-18T10:59:10.893Z,53.29
2017-06-18T11:00:21.331Z,53.17
2017-06-18T11:01:31.735Z,53.14
2017-06-18T11:02:41.844Z,52.85
2017-06-18T11:03:51.629Z,53.21
2017-06-18T11:05:02.243Z,53.11
2017-06-18T11:06:12.762Z,53.19
2017-06-18T11:07:22.570Z,53.19
2017-06-18T11:08:33.002Z,52.8
2017-06-18T11:09:43.093Z,52.8
2017-06-18T11:10:53.577Z,53.19
2017-06-18T11:12:03.989Z,53.19
2017-06-18T11:13:14.461Z,52.04
2017-06-18T11:14:24.570Z,52.26
2017-06-18T11:15:34.971Z,53.31
2017-06-18T11:16:45.633Z,52.7
2017-06-18T11:17:56.043Z,53.19
2017-06-18T11:19:06.544Z,52.67
2017-06-18T11:20:16.629Z,52.38
2017-06-18T11:21:27.028Z,52.5
2017-06-18T11:22:37.525Z,52.5
2017-06-18T11:23:49.323Z,52.92
2017-06-18T11:24:59.689Z,52.8
2017-06-18T11:26:10.128Z,52.5
2017-06-18T11:27:20.574Z,52.34
2017-06-18T11:28:30.715Z,52.44
2017-06-18T11:29:41.113Z,52.44
2017-06-18T11:30:51.593Z,52.44
2017-06-18T11:32:02.261Z,52.63
2017-06-18T11:33:12.426Z,52.34
2017-06-18T11:34:22.185Z,52.46
2017-06-18T11:35:32.586Z,52.36
2017-06-18T11:36:43.073Z,52.39
2017-06-18T11:37:53.495Z,52.09
2017-06-18T11:39:03.929Z,52.19
2017-06-18T11:40:14.327Z,52
2017-06-18T11:41:24.749Z,52.12
2017-06-18T11:42:35.210Z,51.92
2017-06-18T11:43:45.610Z,52.22
2017-06-18T11:44:55.943Z,52.22
2017-06-18T11:46:06.336Z,52.51
2017-06-18T11:47:16.110Z,51.76
2017-06-18T11:48:26.564Z,52.15
2017-06-18T11:49:36.313Z,52.05
2017-06-18T11:50:46.388Z,52.05
2017-06-18T11:51:56.751Z,52.25
2017-06-18T11:53:07.143Z,51.59
2017-06-18T11:54:17.575Z,51.12
2017-06-18T11:55:27.985Z,51.32
2017-06-18T11:56:38.296Z,51.54
2017-06-18T11:57:48.692Z,52.42
2017-06-18T11:58:59.075Z,51.93
2017-06-18T12:00:09.426Z,52.03
2017-06-18T12:01:19.829Z,52.1
2017-06-18T12:02:29.908Z,51.9
2017-06-18T12:03:40.348Z,52.1
2017-06-18T12:04:50.751Z,52.1
2017-06-18T12:06:01.175Z,52.49
2017-06-18T12:07:11.570Z,52.49
2017-06-18T12:08:21.968Z,52.1
2017-06-18T12:09:32.389Z,52.12
2017-06-18T12:10:42.775Z,52.61
2017-06-18T12:11:53.180Z,52.59
2017-06-18T12:13:03.609Z,52.95
2017-06-18T12:14:14.018Z,52.39
2017-06-18T12:15:24.611Z,52.59
2017-06-18T12:16:35.051Z,51.81
2017-06-18T12:17:45.521Z,51.44
2017-06-18T12:18:55.900Z,52.15
2017-06-18T12:20:06.261Z,52.32
2017-06-18T12:21:16.643Z,52.59
2017-06-18T12:22:27.022Z,52.59
2017-06-18T12:23:37.134Z,52.1
2017-06-18T12:24:47.196Z,52.91
2017-06-18T12:25:57.549Z,53.05
2017-06-18T12:27:07.930Z,53.03
2017-06-18T12:28:18.292Z,53.42
2017-06-18T12:29:28.652Z,54.27
2017-06-18T12:30:38.399Z,54.07
2017-06-18T12:31:48.444Z,52.8
2017-06-18T12:32:58.804Z,52.61
2017-06-18T12:34:09.165Z,52.05
2017-06-18T12:35:19.286Z,52.47
2017-06-18T12:36:29.841Z,52.56
2017-06-18T12:37:39.903Z,52
2017-06-18T12:38:49.646Z,51.9
2017-06-18T12:40:00.014Z,52.29
2017-06-18T12:41:10.428Z,51.64
2017-06-18T12:42:20.781Z,52.03
2017-06-18T12:43:31.166Z,52.71
2017-06-18T12:44:40.921Z,52.29
2017-06-18T12:45:51.275Z,52.88
2017-06-18T12:47:01.923Z,52.66
2017-06-18T12:48:12.310Z,52.47
2017-06-18T12:49:22.721Z,52.37
2017-06-18T12:50:33.292Z,52.37
2017-06-18T12:51:43.674Z,52.08
2017-06-18T12:52:53.800Z,52.39
2017-06-18T12:54:03.581Z,53.05
2017-06-18T12:55:13.951Z,53.52
2017-06-18T12:56:24.446Z,53
2017-06-18T12:57:34.538Z,52.83
2017-06-18T12:58:44.669Z,52.34
2017-06-18T12:59:55.090Z,52.27
2017-06-18T13:01:05.478Z,52.27
2017-06-18T13:02:15.846Z,52.27
2017-06-18T13:03:26.227Z,52
2017-06-18T13:04:36.602Z,52.12
2017-06-18T13:05:46.988Z,51.56
2017-06-18T13:06:57.050Z,51.27
2017-06-18T13:08:07.415Z,51.39
2017-06-18T13:09:17.794Z,51.32
2017-06-18T13:10:27.913Z,51.03
2017-06-18T13:11:38.346Z,50.85
2017-06-18T13:12:48.719Z,51.17
2017-06-18T13:13:58.837Z,51.44
2017-06-18T13:15:09.241Z,51.81
2017-06-18T13:16:19.314Z,52.76
2017-06-18T13:17:29.695Z,53.13
2017-06-18T13:18:39.648Z,53.27
2017-06-18T13:19:49.998Z,52.95
2017-06-18T13:21:00.061Z,53.44
2017-06-18T13:22:10.196Z,54
2017-06-18T13:23:20.591Z,53.97
2017-06-18T13:24:30.972Z,54.05
2017-06-18T13:25:41.094Z,53.56
2017-06-18T13:26:51.473Z,53.92
2017-06-18T13:28:01.643Z,53.14
2017-06-18T13:29:12.259Z,53.36
2017-06-18T13:30:22.616Z,52.51
2017-06-18T13:31:32.981Z,52.44
2017-06-18T13:32:43.344Z,52.25
2017-06-18T13:33:53.756Z,52.05
2017-06-18T13:35:04.225Z,52.15
2017-06-18T13:36:14.878Z,52.25
2017-06-18T13:37:25.453Z,52.44
2017-06-18T13:38:35.897Z,52.54
2017-06-18T13:39:45.957Z,52.54
2017-06-18T13:40:55.769Z,52.73
2017-06-18T13:42:09.209Z,52.34
2017-06-18T13:43:19.608Z,52.83
2017-06-18T13:44:30.185Z,52.73
2017-06-18T13:45:40.306Z,53.42
2017-06-18T13:46:50.773Z,53.22
2017-06-18T13:48:00.527Z,53.29
2017-06-18T13:49:10.893Z,52.41
2017-06-18T13:50:21.297Z,53.19
2017-06-18T13:51:31.709Z,53
2017-06-18T13:52:41.905Z,52.87
2017-06-18T13:53:52.291Z,53.17
2017-06-18T13:55:02.407Z,53.07
2017-06-18T13:56:12.485Z,53.07
2017-06-18T13:57:22.913Z,53.17
2017-06-18T13:58:33.353Z,53.07
2017-06-18T13:59:43.743Z,52.87
2017-06-18T14:00:54.113Z,52.68
2017-06-18T14:02:04.495Z,53.17
2017-06-18T14:03:14.866Z,53
2017-06-18T14:04:25.302Z,53.39
2017-06-18T14:05:35.346Z,53.09
2017-06-18T14:06:45.851Z,53.03
2017-06-18T14:07:55.916Z,53.42
2017-06-18T14:09:06.521Z,53.03
2017-06-18T14:10:16.947Z,53.03
2017-06-18T14:11:27.350Z,52.93
2017-06-18T14:12:37.391Z,52.54
2017-06-18T14:13:48.028Z,52.54
2017-06-18T14:14:58.428Z,52.76
2017-06-18T14:16:08.938Z,52.47
2017-06-18T14:17:19.330Z,52.76
2017-06-18T14:18:29.792Z,52.39
2017-06-18T14:19:40.260Z,52.1
2017-06-18T14:20:50.682Z,52.1
2017-06-18T14:22:01.195Z,52.51
2017-06-18T14:23:11.609Z,52.71
2017-06-18T14:24:21.694Z,52.34
2017-06-18T14:25:31.754Z,52.34
2017-06-18T14:26:41.796Z,52.22
2017-06-18T14:27:51.903Z,52.25
2017-06-18T14:29:02.265Z,52.34
2017-06-18T14:30:12.644Z,52.44
2017-06-18T14:31:23.012Z,52.64
2017-06-18T14:32:33.065Z,53.33
2017-06-18T14:33:43.461Z,53.47
2017-06-18T14:34:53.498Z,53.64
2017-06-18T14:36:03.903Z,54.3
2017-06-18T14:37:14.282Z,54.49
2017-06-18T14:38:24.849Z,54.73
2017-06-18T14:39:35.314Z,55.12
2017-06-18T14:40:45.937Z,54.8
2017-06-18T14:41:55.993Z,54.77
2017-06-18T14:43:06.490Z,54.19
2017-06-18T14:44:16.844Z,53.83
2017-06-18T14:45:27.283Z,53.95
2017-06-18T14:46:37.672Z,53.17
2017-06-18T14:47:48.044Z,52.87
2017-06-18T14:48:58.426Z,53.56
2017-06-18T14:50:08.805Z,53.27
2017-06-18T14:51:19.247Z,52.87
2017-06-18T14:52:29.293Z,53.36
2017-06-18T14:53:39.684Z,53.27
2017-06-18T14:54:50.034Z,52.97
2017-06-18T14:56:00.417Z,53.44
2017-06-18T14:57:11.037Z,53.14
2017-06-18T14:58:21.399Z,53.34
2017-06-18T14:59:31.767Z,53.44
2017-06-18T15:00:42.128Z,53.14
2017-06-18T15:01:52.534Z,53.24
2017-06-18T15:03:02.625Z,53.53
2017-06-18T15:04:12.702Z,53.44
2017-06-18T15:05:23.320Z,53.24
2017-06-18T15:06:33.684Z,53.24
2017-06-18T15:07:44.058Z,53.63
2017-06-18T15:08:54.511Z,54.02
2017-06-18T15:10:04.917Z,54.11
2017-06-18T15:11:14.926Z,54.11
2017-06-18T15:12:25.286Z,54.21
2017-06-18T15:13:35.640Z,54.11
2017-06-18T15:14:46.087Z,53.92
2017-06-18T15:15:56.141Z,53.89
2017-06-18T15:17:06.519Z,54.11
2017-06-18T15:18:17.087Z,54.11
2017-06-18T15:19:27.444Z,54.11
2017-06-18T15:20:37.873Z,53.44
2017-06-18T15:21:48.447Z,53.14
2017-06-18T15:22:58.837Z,53.14
2017-06-18T15:24:09.192Z,53.24
2017-06-18T15:25:19.246Z,53.24
2017-06-18T15:26:29.664Z,53.73
2017-06-18T15:27:40.074Z,54.11
2017-06-18T15:28:49.804Z,53.63
2017-06-18T15:30:00.180Z,54.21
2017-06-18T15:31:10.528Z,54.02
2017-06-18T15:32:20.640Z,53.73
2017-06-18T15:33:31.011Z,54.41
2017-06-18T15:34:41.385Z,54.28
2017-06-18T15:35:51.774Z,54.19
2017-06-18T15:37:01.818Z,53.8
2017-06-18T15:38:12.269Z,53.89
2017-06-18T15:39:22.353Z,53.73